sensor_id;sensor_type;location;lat;lon;timestamp;P1;durP1;ratioP1;P2;durP2;ratioP2
48161;SDS011;33950;48.154;16.316;2022-08-21T00:01:15;3.20;;;2.88;;
48161;SDS011;33950;48.154;16.316;2022-08-21T00:03:44;4.05;;;3.42;;
48161;SDS011;33950;48.154;16.316;2022-08-21T00:06:10;4.10;;;2.78;;
48161;SDS011;33950;48.154;16.316;2022-08-21T00:08:36;3.60;;;3.30;;
48161;SDS011;33950;48.154;16.316;2022-08-21T00:11:02;3.58;;;3.28;;
48161;SDS011;33950;48.154;16.316;2022-08-21T00:13:29;3.65;;;3.15;;
48161;SDS011;33950;48.154;16.316;2022-08-21T00:15:55;3.58;;;3.10;;
48161;SDS011;33950;48.154;16.316;2022-08-21T00:18:23;4.22;;;3.33;;
48161;SDS011;33950;48.154;16.316;2022-08-21T00:20:49;4.78;;;3.35;;
48161;SDS011;33950;48.154;16.316;2022-08-21T00:23:15;4.03;;;3.63;;
48161;SDS011;33950;48.154;16.316;2022-08-21T00:25:41;4.00;;;3.20;;
48161;SDS011;33950;48.154;16.316;2022-08-21T00:28:08;4.07;;;3.67;;
48161;SDS011;33950;48.154;16.316;2022-08-21T00:30:35;4.05;;;3.63;;
48161;SDS011;33950;48.154;16.316;2022-08-21T00:33:01;4.43;;;4.00;;
48161;SDS011;33950;48.154;16.316;2022-08-21T00:35:31;4.40;;;3.83;;
48161;SDS011;33950;48.154;16.316;2022-08-21T00:37:59;5.70;;;4.28;;
48161;SDS011;33950;48.154;16.316;2022-08-21T00:40:26;5.88;;;3.97;;
48161;SDS011;33950;48.154;16.316;2022-08-21T00:42:55;6.97;;;4.05;;
48161;SDS011;33950;48.154;16.316;2022-08-21T00:45:21;5.20;;;3.75;;
48161;SDS011;33950;48.154;16.316;2022-08-21T00:47:48;4.07;;;3.45;;
48161;SDS011;33950;48.154;16.316;2022-08-21T00:50:14;7.07;;;4.63;;
48161;SDS011;33950;48.154;16.316;2022-08-21T00:52:42;10.52;;;3.92;;
48161;SDS011;33950;48.154;16.316;2022-08-21T00:55:08;5.50;;;4.40;;
48161;SDS011;33950;48.154;16.316;2022-08-21T00:57:37;7.85;;;4.28;;
48161;SDS011;33950;48.154;16.316;2022-08-21T01:00:08;5.40;;;4.00;;
48161;SDS011;33950;48.154;16.316;2022-08-21T01:02:37;8.35;;;4.68;;
48161;SDS011;33950;48.154;16.316;2022-08-21T01:05:03;4.85;;;4.45;;
48161;SDS011;33950;48.154;16.316;2022-08-21T01:07:30;4.50;;;3.58;;
48161;SDS011;33950;48.154;16.316;2022-08-21T01:09:57;5.45;;;4.38;;
48161;SDS011;33950;48.154;16.316;2022-08-21T01:12:23;5.07;;;4.18;;
48161;SDS011;33950;48.154;16.316;2022-08-21T01:14:50;9.43;;;4.28;;
48161;SDS011;33950;48.154;16.316;2022-08-21T01:17:16;3.83;;;3.40;;
48161;SDS011;33950;48.154;16.316;2022-08-21T01:19:44;8.15;;;5.10;;
48161;SDS011;33950;48.154;16.316;2022-08-21T01:22:11;5.72;;;4.53;;
48161;SDS011;33950;48.154;16.316;2022-08-21T01:24:37;5.18;;;4.35;;
48161;SDS011;33950;48.154;16.316;2022-08-21T01:27:04;5.43;;;4.53;;
48161;SDS011;33950;48.154;16.316;2022-08-21T01:29:32;7.00;;;4.75;;
48161;SDS011;33950;48.154;16.316;2022-08-21T01:32:03;6.10;;;4.50;;
48161;SDS011;33950;48.154;16.316;2022-08-21T01:34:31;4.82;;;4.32;;
48161;SDS011;33950;48.154;16.316;2022-08-21T01:36:58;6.32;;;5.38;;
48161;SDS011;33950;48.154;16.316;2022-08-21T01:39:25;5.22;;;4.28;;
48161;SDS011;33950;48.154;16.316;2022-08-21T01:41:51;5.95;;;4.93;;
48161;SDS011;33950;48.154;16.316;2022-08-21T01:44:20;7.03;;;4.45;;
48161;SDS011;33950;48.154;16.316;2022-08-21T01:46:46;9.65;;;4.65;;
48161;SDS011;33950;48.154;16.316;2022-08-21T01:49:11;6.50;;;4.45;;
48161;SDS011;33950;48.154;16.316;2022-08-21T01:51:37;8.63;;;5.47;;
48161;SDS011;33950;48.154;16.316;2022-08-21T01:54:03;6.78;;;4.78;;
48161;SDS011;33950;48.154;16.316;2022-08-21T01:56:34;8.43;;;5.78;;
48161;SDS011;33950;48.154;16.316;2022-08-21T01:59:01;5.90;;;4.70;;
48161;SDS011;33950;48.154;16.316;2022-08-21T02:01:27;6.07;;;4.93;;
48161;SDS011;33950;48.154;16.316;2022-08-21T02:03:53;6.20;;;5.05;;
48161;SDS011;33950;48.154;16.316;2022-08-21T02:06:18;9.55;;;5.68;;
48161;SDS011;33950;48.154;16.316;2022-08-21T02:08:44;7.25;;;5.28;;
48161;SDS011;33950;48.154;16.316;2022-08-21T02:11:10;6.60;;;5.82;;
48161;SDS011;33950;48.154;16.316;2022-08-21T02:13:38;6.90;;;5.38;;
48161;SDS011;33950;48.154;16.316;2022-08-21T02:16:04;5.45;;;4.93;;
48161;SDS011;33950;48.154;16.316;2022-08-21T02:18:31;5.28;;;4.65;;
48161;SDS011;33950;48.154;16.316;2022-08-21T02:20:57;5.40;;;4.32;;
48161;SDS011;33950;48.154;16.316;2022-08-21T02:23:23;4.85;;;4.35;;
48161;SDS011;33950;48.154;16.316;2022-08-21T02:25:49;5.55;;;4.60;;
48161;SDS011;33950;48.154;16.316;2022-08-21T02:28:15;6.68;;;4.85;;
48161;SDS011;33950;48.154;16.316;2022-08-21T02:30:43;5.70;;;4.95;;
48161;SDS011;33950;48.154;16.316;2022-08-21T02:33:11;6.70;;;5.60;;
48161;SDS011;33950;48.154;16.316;2022-08-21T02:35:39;8.88;;;6.15;;
48161;SDS011;33950;48.154;16.316;2022-08-21T02:38:09;9.38;;;7.03;;
48161;SDS011;33950;48.154;16.316;2022-08-21T02:40:37;11.57;;;7.18;;
48161;SDS011;33950;48.154;16.316;2022-08-21T02:43:05;8.40;;;7.18;;
48161;SDS011;33950;48.154;16.316;2022-08-21T02:45:31;10.68;;;7.20;;
48161;SDS011;33950;48.154;16.316;2022-08-21T02:48:00;14.40;;;7.32;;
48161;SDS011;33950;48.154;16.316;2022-08-21T02:50:29;7.75;;;6.80;;
48161;SDS011;33950;48.154;16.316;2022-08-21T02:52:58;11.43;;;7.63;;
48161;SDS011;33950;48.154;16.316;2022-08-21T02:55:26;8.23;;;6.38;;
48161;SDS011;33950;48.154;16.316;2022-08-21T02:57:53;8.45;;;6.72;;
48161;SDS011;33950;48.154;16.316;2022-08-21T03:00:20;9.27;;;7.65;;
48161;SDS011;33950;48.154;16.316;2022-08-21T03:02:47;9.57;;;7.10;;
48161;SDS011;33950;48.154;16.316;2022-08-21T03:05:15;8.80;;;5.80;;
48161;SDS011;33950;48.154;16.316;2022-08-21T03:07:41;5.07;;;4.57;;
48161;SDS011;33950;48.154;16.316;2022-08-21T03:10:07;4.70;;;3.97;;
48161;SDS011;33950;48.154;16.316;2022-08-21T03:12:34;5.15;;;4.32;;
48161;SDS011;33950;48.154;16.316;2022-08-21T03:15:01;5.95;;;4.05;;
48161;SDS011;33950;48.154;16.316;2022-08-21T03:17:27;5.07;;;4.15;;
48161;SDS011;33950;48.154;16.316;2022-08-21T03:19:53;5.28;;;3.25;;
48161;SDS011;33950;48.154;16.316;2022-08-21T03:22:20;4.47;;;3.78;;
48161;SDS011;33950;48.154;16.316;2022-08-21T03:24:46;4.40;;;3.70;;
48161;SDS011;33950;48.154;16.316;2022-08-21T03:27:12;5.25;;;3.80;;
48161;SDS011;33950;48.154;16.316;2022-08-21T03:29:38;4.68;;;3.80;;
48161;SDS011;33950;48.154;16.316;2022-08-21T03:32:04;7.38;;;3.70;;
48161;SDS011;33950;48.154;16.316;2022-08-21T03:34:30;4.25;;;3.85;;
48161;SDS011;33950;48.154;16.316;2022-08-21T03:36:56;4.25;;;3.63;;
48161;SDS011;33950;48.154;16.316;2022-08-21T03:39:23;5.57;;;3.47;;
48161;SDS011;33950;48.154;16.316;2022-08-21T03:41:48;3.40;;;3.08;;
48161;SDS011;33950;48.154;16.316;2022-08-21T03:44:14;3.40;;;3.08;;
48161;SDS011;33950;48.154;16.316;2022-08-21T03:46:40;3.65;;;3.35;;
48161;SDS011;33950;48.154;16.316;2022-08-21T03:49:06;4.95;;;2.50;;
48161;SDS011;33950;48.154;16.316;2022-08-21T03:51:32;2.78;;;2.42;;
48161;SDS011;33950;48.154;16.316;2022-08-21T03:53:58;2.70;;;2.50;;
48161;SDS011;33950;48.154;16.316;2022-08-21T03:56:25;2.03;;;1.88;;
48161;SDS011;33950;48.154;16.316;2022-08-21T03:58:51;1.63;;;1.52;;
48161;SDS011;33950;48.154;16.316;2022-08-21T04:01:17;1.90;;;1.80;;
48161;SDS011;33950;48.154;16.316;2022-08-21T04:03:43;1.92;;;1.58;;
48161;SDS011;33950;48.154;16.316;2022-08-21T04:06:08;1.88;;;1.77;;
48161;SDS011;33950;48.154;16.316;2022-08-21T04:08:34;2.10;;;1.92;;
48161;SDS011;33950;48.154;16.316;2022-08-21T04:11:00;2.65;;;1.73;;
48161;SDS011;33950;48.154;16.316;2022-08-21T04:13:28;1.40;;;1.30;;
48161;SDS011;33950;48.154;16.316;2022-08-21T04:15:54;1.23;;;1.13;;
48161;SDS011;33950;48.154;16.316;2022-08-21T04:18:20;1.30;;;1.20;;
48161;SDS011;33950;48.154;16.316;2022-08-21T04:20:46;1.58;;;1.48;;
48161;SDS011;33950;48.154;16.316;2022-08-21T04:23:15;1.42;;;1.30;;
48161;SDS011;33950;48.154;16.316;2022-08-21T04:25:40;1.60;;;1.50;;
48161;SDS011;33950;48.154;16.316;2022-08-21T04:28:06;1.52;;;1.42;;
48161;SDS011;33950;48.154;16.316;2022-08-21T04:30:33;2.72;;;1.65;;
48161;SDS011;33950;48.154;16.316;2022-08-21T04:33:00;2.15;;;1.95;;
48161;SDS011;33950;48.154;16.316;2022-08-21T04:35:26;2.50;;;1.77;;
48161;SDS011;33950;48.154;16.316;2022-08-21T04:37:53;2.20;;;1.98;;
48161;SDS011;33950;48.154;16.316;2022-08-21T04:40:20;2.35;;;2.15;;
48161;SDS011;33950;48.154;16.316;2022-08-21T04:42:48;1.92;;;1.83;;
48161;SDS011;33950;48.154;16.316;2022-08-21T04:45:16;2.78;;;2.00;;
48161;SDS011;33950;48.154;16.316;2022-08-21T04:47:46;2.88;;;2.13;;
48161;SDS011;33950;48.154;16.316;2022-08-21T04:50:13;1.83;;;1.73;;
48161;SDS011;33950;48.154;16.316;2022-08-21T04:52:39;2.10;;;2.00;;
48161;SDS011;33950;48.154;16.316;2022-08-21T04:55:05;5.47;;;2.05;;
48161;SDS011;33950;48.154;16.316;2022-08-21T04:57:33;3.50;;;1.88;;
48161;SDS011;33950;48.154;16.316;2022-08-21T05:00:00;2.25;;;1.85;;
48161;SDS011;33950;48.154;16.316;2022-08-21T05:02:28;2.45;;;2.08;;
48161;SDS011;33950;48.154;16.316;2022-08-21T05:04:55;2.28;;;2.08;;
48161;SDS011;33950;48.154;16.316;2022-08-21T05:07:23;1.92;;;1.67;;
48161;SDS011;33950;48.154;16.316;2022-08-21T05:09:52;2.65;;;2.03;;
48161;SDS011;33950;48.154;16.316;2022-08-21T05:12:19;2.33;;;2.13;;
48161;SDS011;33950;48.154;16.316;2022-08-21T05:14:45;2.88;;;2.65;;
48161;SDS011;33950;48.154;16.316;2022-08-21T05:17:12;2.83;;;2.63;;
48161;SDS011;33950;48.154;16.316;2022-08-21T05:19:38;3.08;;;2.78;;
48161;SDS011;33950;48.154;16.316;2022-08-21T05:22:06;2.55;;;2.35;;
48161;SDS011;33950;48.154;16.316;2022-08-21T05:24:32;3.38;;;2.90;;
48161;SDS011;33950;48.154;16.316;2022-08-21T05:26:58;3.28;;;2.78;;
48161;SDS011;33950;48.154;16.316;2022-08-21T05:29:24;2.80;;;2.50;;
48161;SDS011;33950;48.154;16.316;2022-08-21T05:31:50;3.78;;;3.38;;
48161;SDS011;33950;48.154;16.316;2022-08-21T05:34:18;3.85;;;3.22;;
48161;SDS011;33950;48.154;16.316;2022-08-21T05:36:45;3.50;;;3.20;;
48161;SDS011;33950;48.154;16.316;2022-08-21T05:39:12;4.00;;;3.38;;
48161;SDS011;33950;48.154;16.316;2022-08-21T05:41:38;3.80;;;3.30;;
48161;SDS011;33950;48.154;16.316;2022-08-21T05:44:04;3.30;;;3.00;;
48161;SDS011;33950;48.154;16.316;2022-08-21T05:46:30;3.00;;;2.70;;
48161;SDS011;33950;48.154;16.316;2022-08-21T05:48:56;3.72;;;2.72;;
48161;SDS011;33950;48.154;16.316;2022-08-21T05:51:21;3.35;;;3.05;;
48161;SDS011;33950;48.154;16.316;2022-08-21T05:53:48;3.08;;;2.78;;
48161;SDS011;33950;48.154;16.316;2022-08-21T05:56:15;2.90;;;2.70;;
48161;SDS011;33950;48.154;16.316;2022-08-21T05:58:41;7.72;;;2.63;;
48161;SDS011;33950;48.154;16.316;2022-08-21T06:01:07;4.45;;;2.53;;
48161;SDS011;33950;48.154;16.316;2022-08-21T06:03:35;4.18;;;3.78;;
48161;SDS011;33950;48.154;16.316;2022-08-21T06:06:03;2.78;;;2.47;;
48161;SDS011;33950;48.154;16.316;2022-08-21T06:08:29;3.70;;;2.90;;
48161;SDS011;33950;48.154;16.316;2022-08-21T06:10:55;3.47;;;3.10;;
48161;SDS011;33950;48.154;16.316;2022-08-21T06:13:25;3.22;;;2.88;;
48161;SDS011;33950;48.154;16.316;2022-08-21T06:16:00;3.30;;;3.00;;
48161;SDS011;33950;48.154;16.316;2022-08-21T06:18:26;2.88;;;2.58;;
48161;SDS011;33950;48.154;16.316;2022-08-21T06:20:52;3.97;;;2.88;;
48161;SDS011;33950;48.154;16.316;2022-08-21T06:23:18;3.17;;;2.70;;
48161;SDS011;33950;48.154;16.316;2022-08-21T06:25:44;3.20;;;2.90;;
48161;SDS011;33950;48.154;16.316;2022-08-21T06:28:10;3.70;;;3.03;;
48161;SDS011;33950;48.154;16.316;2022-08-21T06:30:37;3.42;;;2.85;;
48161;SDS011;33950;48.154;16.316;2022-08-21T06:33:04;3.95;;;2.88;;
48161;SDS011;33950;48.154;16.316;2022-08-21T06:35:32;3.92;;;2.83;;
48161;SDS011;33950;48.154;16.316;2022-08-21T06:37:58;2.95;;;2.65;;
48161;SDS011;33950;48.154;16.316;2022-08-21T06:40:24;4.15;;;2.90;;
48161;SDS011;33950;48.154;16.316;2022-08-21T06:42:50;3.65;;;3.35;;
48161;SDS011;33950;48.154;16.316;2022-08-21T06:45:16;3.15;;;2.85;;
48161;SDS011;33950;48.154;16.316;2022-08-21T06:47:43;4.00;;;2.83;;
48161;SDS011;33950;48.154;16.316;2022-08-21T06:50:10;4.28;;;3.10;;
48161;SDS011;33950;48.154;16.316;2022-08-21T06:52:36;7.07;;;3.33;;
48161;SDS011;33950;48.154;16.316;2022-08-21T06:55:02;3.60;;;3.20;;
48161;SDS011;33950;48.154;16.316;2022-08-21T06:57:30;3.72;;;3.40;;
48161;SDS011;33950;48.154;16.316;2022-08-21T06:59:56;3.13;;;2.85;;
48161;SDS011;33950;48.154;16.316;2022-08-21T07:02:22;4.38;;;3.78;;
48161;SDS011;33950;48.154;16.316;2022-08-21T07:04:49;5.95;;;3.45;;
48161;SDS011;33950;48.154;16.316;2022-08-21T07:07:16;3.60;;;3.22;;
48161;SDS011;33950;48.154;16.316;2022-08-21T07:09:42;4.70;;;3.45;;
48161;SDS011;33950;48.154;16.316;2022-08-21T07:12:08;3.92;;;3.53;;
48161;SDS011;33950;48.154;16.316;2022-08-21T07:14:35;4.68;;;3.75;;
48161;SDS011;33950;48.154;16.316;2022-08-21T07:17:00;3.80;;;3.50;;
48161;SDS011;33950;48.154;16.316;2022-08-21T07:19:26;5.13;;;3.55;;
48161;SDS011;33950;48.154;16.316;2022-08-21T07:21:54;3.33;;;3.03;;
48161;SDS011;33950;48.154;16.316;2022-08-21T07:24:23;4.13;;;3.63;;
48161;SDS011;33950;48.154;16.316;2022-08-21T07:26:49;4.35;;;3.80;;
48161;SDS011;33950;48.154;16.316;2022-08-21T07:29:14;6.57;;;3.35;;
48161;SDS011;33950;48.154;16.316;2022-08-21T07:31:40;5.07;;;3.40;;
48161;SDS011;33950;48.154;16.316;2022-08-21T07:34:06;3.53;;;3.22;;
48161;SDS011;33950;48.154;16.316;2022-08-21T07:36:33;5.35;;;3.15;;
48161;SDS011;33950;48.154;16.316;2022-08-21T07:39:00;3.85;;;3.40;;
48161;SDS011;33950;48.154;16.316;2022-08-21T07:41:26;3.42;;;3.13;;
48161;SDS011;33950;48.154;16.316;2022-08-21T07:43:54;4.90;;;3.30;;
48161;SDS011;33950;48.154;16.316;2022-08-21T07:46:22;5.72;;;3.22;;
48161;SDS011;33950;48.154;16.316;2022-08-21T07:48:49;4.18;;;3.78;;
48161;SDS011;33950;48.154;16.316;2022-08-21T07:51:15;5.38;;;3.97;;
48161;SDS011;33950;48.154;16.316;2022-08-21T07:53:42;4.50;;;4.10;;
48161;SDS011;33950;48.154;16.316;2022-08-21T07:56:13;5.60;;;3.92;;
48161;SDS011;33950;48.154;16.316;2022-08-21T07:58:39;5.95;;;4.30;;
48161;SDS011;33950;48.154;16.316;2022-08-21T08:01:05;4.97;;;4.47;;
48161;SDS011;33950;48.154;16.316;2022-08-21T08:03:31;4.75;;;3.67;;
48161;SDS011;33950;48.154;16.316;2022-08-21T08:05:57;4.72;;;3.70;;
48161;SDS011;33950;48.154;16.316;2022-08-21T08:08:23;4.78;;;3.45;;
48161;SDS011;33950;48.154;16.316;2022-08-21T08:10:48;4.07;;;3.67;;
48161;SDS011;33950;48.154;16.316;2022-08-21T08:13:16;4.20;;;3.50;;
48161;SDS011;33950;48.154;16.316;2022-08-21T08:15:42;3.58;;;3.22;;
48161;SDS011;33950;48.154;16.316;2022-08-21T08:18:08;3.83;;;3.38;;
48161;SDS011;33950;48.154;16.316;2022-08-21T08:20:34;3.97;;;2.78;;
48161;SDS011;33950;48.154;16.316;2022-08-21T08:22:59;3.20;;;2.90;;
48161;SDS011;33950;48.154;16.316;2022-08-21T08:25:26;3.90;;;3.28;;
48161;SDS011;33950;48.154;16.316;2022-08-21T08:27:52;4.13;;;2.90;;
48161;SDS011;33950;48.154;16.316;2022-08-21T08:30:19;3.20;;;2.90;;
48161;SDS011;33950;48.154;16.316;2022-08-21T08:32:46;3.42;;;3.00;;
48161;SDS011;33950;48.154;16.316;2022-08-21T08:35:13;3.72;;;3.35;;
48161;SDS011;33950;48.154;16.316;2022-08-21T08:37:39;2.80;;;2.58;;
48161;SDS011;33950;48.154;16.316;2022-08-21T08:40:07;3.30;;;3.00;;
48161;SDS011;33950;48.154;16.316;2022-08-21T08:42:36;5.18;;;3.05;;
48161;SDS011;33950;48.154;16.316;2022-08-21T08:45:03;3.90;;;3.13;;
48161;SDS011;33950;48.154;16.316;2022-08-21T08:47:33;4.63;;;3.40;;
48161;SDS011;33950;48.154;16.316;2022-08-21T08:50:04;3.67;;;3.38;;
48161;SDS011;33950;48.154;16.316;2022-08-21T08:52:33;3.83;;;3.50;;
48161;SDS011;33950;48.154;16.316;2022-08-21T08:55:01;5.97;;;3.63;;
48161;SDS011;33950;48.154;16.316;2022-08-21T08:57:29;3.67;;;3.35;;
48161;SDS011;33950;48.154;16.316;2022-08-21T08:59:57;8.77;;;3.70;;
48161;SDS011;33950;48.154;16.316;2022-08-21T09:02:25;3.88;;;3.47;;
48161;SDS011;33950;48.154;16.316;2022-08-21T09:04:54;3.50;;;3.03;;
48161;SDS011;33950;48.154;16.316;2022-08-21T09:07:23;4.90;;;3.25;;
48161;SDS011;33950;48.154;16.316;2022-08-21T09:10:03;3.28;;;2.90;;
48161;SDS011;33950;48.154;16.316;2022-08-21T09:12:38;3.67;;;3.33;;
48161;SDS011;33950;48.154;16.316;2022-08-21T09:15:12;4.20;;;3.80;;
48161;SDS011;33950;48.154;16.316;2022-08-21T09:17:57;3.50;;;3.13;;
48161;SDS011;33950;48.154;16.316;2022-08-21T09:20:41;4.15;;;3.42;;
48161;SDS011;33950;48.154;16.316;2022-08-21T09:23:17;3.45;;;3.13;;
48161;SDS011;33950;48.154;16.316;2022-08-21T09:25:53;3.42;;;3.03;;
48161;SDS011;33950;48.154;16.316;2022-08-21T09:28:27;3.45;;;2.85;;
48161;SDS011;33950;48.154;16.316;2022-08-21T09:30:56;3.20;;;2.90;;
48161;SDS011;33950;48.154;16.316;2022-08-21T09:33:27;3.45;;;3.08;;
48161;SDS011;33950;48.154;16.316;2022-08-21T09:35:55;2.85;;;2.60;;
48161;SDS011;33950;48.154;16.316;2022-08-21T09:38:25;2.67;;;2.45;;
48161;SDS011;33950;48.154;16.316;2022-08-21T09:40:58;2.78;;;2.58;;
48161;SDS011;33950;48.154;16.316;2022-08-21T09:43:26;2.85;;;2.60;;
48161;SDS011;33950;48.154;16.316;2022-08-21T09:46:01;3.08;;;2.60;;
48161;SDS011;33950;48.154;16.316;2022-08-21T09:48:29;2.95;;;2.70;;
48161;SDS011;33950;48.154;16.316;2022-08-21T09:51:08;3.00;;;2.72;;
48161;SDS011;33950;48.154;16.316;2022-08-21T09:53:37;3.83;;;2.95;;
48161;SDS011;33950;48.154;16.316;2022-08-21T09:56:16;3.67;;;3.00;;
48161;SDS011;33950;48.154;16.316;2022-08-21T09:59:12;2.85;;;2.58;;
48161;SDS011;33950;48.154;16.316;2022-08-21T10:01:42;5.25;;;3.33;;
48161;SDS011;33950;48.154;16.316;2022-08-21T10:04:12;5.78;;;3.20;;
48161;SDS011;33950;48.154;16.316;2022-08-21T10:06:40;4.38;;;3.50;;
48161;SDS011;33950;48.154;16.316;2022-08-21T10:09:07;4.38;;;3.15;;
48161;SDS011;33950;48.154;16.316;2022-08-21T10:11:38;9.50;;;3.22;;
48161;SDS011;33950;48.154;16.316;2022-08-21T10:14:12;6.75;;;3.70;;
48161;SDS011;33950;48.154;16.316;2022-08-21T10:16:47;3.63;;;2.63;;
48161;SDS011;33950;48.154;16.316;2022-08-21T10:19:26;4.25;;;3.05;;
48161;SDS011;33950;48.154;16.316;2022-08-21T10:22:01;3.65;;;3.33;;
48161;SDS011;33950;48.154;16.316;2022-08-21T10:24:37;3.85;;;3.42;;
48161;SDS011;33950;48.154;16.316;2022-08-21T10:27:19;4.70;;;3.78;;
48161;SDS011;33950;48.154;16.316;2022-08-21T10:29:58;3.42;;;3.13;;
48161;SDS011;33950;48.154;16.316;2022-08-21T10:32:35;3.70;;;3.22;;
48161;SDS011;33950;48.154;16.316;2022-08-21T10:35:27;3.72;;;2.90;;
48161;SDS011;33950;48.154;16.316;2022-08-21T10:38:07;2.60;;;2.40;;
48161;SDS011;33950;48.154;16.316;2022-08-21T10:41:11;3.78;;;2.30;;
48161;SDS011;33950;48.154;16.316;2022-08-21T10:44:05;2.53;;;2.33;;
48161;SDS011;33950;48.154;16.316;2022-08-21T10:46:47;3.22;;;2.90;;
48161;SDS011;33950;48.154;16.316;2022-08-21T10:49:27;4.22;;;3.20;;
48161;SDS011;33950;48.154;16.316;2022-08-21T10:52:10;4.18;;;3.40;;
48161;SDS011;33950;48.154;16.316;2022-08-21T10:55:04;3.70;;;3.10;;
48161;SDS011;33950;48.154;16.316;2022-08-21T10:57:43;3.40;;;2.78;;
48161;SDS011;33950;48.154;16.316;2022-08-21T11:00:16;4.40;;;2.88;;
48161;SDS011;33950;48.154;16.316;2022-08-21T11:02:51;2.90;;;2.53;;
48161;SDS011;33950;48.154;16.316;2022-08-21T11:05:30;2.25;;;2.05;;
48161;SDS011;33950;48.154;16.316;2022-08-21T11:08:01;2.38;;;2.15;;
48161;SDS011;33950;48.154;16.316;2022-08-21T11:10:33;2.47;;;2.03;;
48161;SDS011;33950;48.154;16.316;2022-08-21T11:13:11;1.70;;;1.60;;
48161;SDS011;33950;48.154;16.316;2022-08-21T11:16:05;1.77;;;1.52;;
48161;SDS011;33950;48.154;16.316;2022-08-21T11:18:40;3.80;;;1.80;;
48161;SDS011;33950;48.154;16.316;2022-08-21T11:21:16;1.70;;;1.60;;
48161;SDS011;33950;48.154;16.316;2022-08-21T11:23:57;1.45;;;1.35;;
48161;SDS011;33950;48.154;16.316;2022-08-21T11:26:33;1.58;;;1.13;;
48161;SDS011;33950;48.154;16.316;2022-08-21T11:29:08;1.13;;;1.13;;
48161;SDS011;33950;48.154;16.316;2022-08-21T11:31:44;1.50;;;1.40;;
48161;SDS011;33950;48.154;16.316;2022-08-21T11:34:19;5.25;;;1.65;;
48161;SDS011;33950;48.154;16.316;2022-08-21T11:37:01;1.20;;;1.20;;
48161;SDS011;33950;48.154;16.316;2022-08-21T11:39:34;1.33;;;1.10;;
48161;SDS011;33950;48.154;16.316;2022-08-21T11:42:14;1.00;;;0.90;;
48161;SDS011;33950;48.154;16.316;2022-08-21T11:44:47;2.42;;;1.60;;
48161;SDS011;33950;48.154;16.316;2022-08-21T11:47:19;1.45;;;1.35;;
48161;SDS011;33950;48.154;16.316;2022-08-21T11:50:01;2.38;;;1.38;;
48161;SDS011;33950;48.154;16.316;2022-08-21T11:52:41;0.95;;;0.88;;
48161;SDS011;33950;48.154;16.316;2022-08-21T11:55:14;1.42;;;1.33;;
48161;SDS011;33950;48.154;16.316;2022-08-21T11:57:46;1.45;;;1.35;;
48161;SDS011;33950;48.154;16.316;2022-08-21T12:00:19;1.00;;;1.00;;
48161;SDS011;33950;48.154;16.316;2022-08-21T12:02:50;1.70;;;1.40;;
48161;SDS011;33950;48.154;16.316;2022-08-21T12:05:23;2.05;;;1.35;;
48161;SDS011;33950;48.154;16.316;2022-08-21T12:08:03;1.38;;;1.27;;
48161;SDS011;33950;48.154;16.316;2022-08-21T12:10:40;1.55;;;1.38;;
48161;SDS011;33950;48.154;16.316;2022-08-21T12:13:22;2.42;;;1.33;;
48161;SDS011;33950;48.154;16.316;2022-08-21T12:15:49;2.00;;;1.15;;
48161;SDS011;33950;48.154;16.316;2022-08-21T12:18:28;3.70;;;1.50;;
48161;SDS011;33950;48.154;16.316;2022-08-21T12:21:03;1.05;;;1.05;;
48161;SDS011;33950;48.154;16.316;2022-08-21T12:23:44;1.70;;;1.50;;
48161;SDS011;33950;48.154;16.316;2022-08-21T12:26:24;3.85;;;1.30;;
48161;SDS011;33950;48.154;16.316;2022-08-21T12:31:33;2.25;;;1.30;;
48161;SDS011;33950;48.154;16.316;2022-08-21T12:34:00;1.50;;;1.38;;
48161;SDS011;33950;48.154;16.316;2022-08-21T12:36:34;4.30;;;1.50;;
48161;SDS011;33950;48.154;16.316;2022-08-21T12:39:11;1.42;;;1.33;;
48161;SDS011;33950;48.154;16.316;2022-08-21T12:41:42;1.15;;;1.05;;
48161;SDS011;33950;48.154;16.316;2022-08-21T12:44:14;3.13;;;1.67;;
48161;SDS011;33950;48.154;16.316;2022-08-21T12:46:45;1.40;;;1.30;;
48161;SDS011;33950;48.154;16.316;2022-08-21T12:49:16;2.35;;;1.60;;
48161;SDS011;33950;48.154;16.316;2022-08-21T12:51:50;2.08;;;1.90;;
48161;SDS011;33950;48.154;16.316;2022-08-21T12:54:23;7.70;;;1.65;;
48161;SDS011;33950;48.154;16.316;2022-08-21T12:56:55;2.15;;;1.95;;
48161;SDS011;33950;48.154;16.316;2022-08-21T12:59:24;1.95;;;1.85;;
48161;SDS011;33950;48.154;16.316;2022-08-21T13:01:51;1.65;;;1.50;;
48161;SDS011;33950;48.154;16.316;2022-08-21T13:04:18;1.83;;;1.73;;
48161;SDS011;33950;48.154;16.316;2022-08-21T13:06:47;1.90;;;1.80;;
48161;SDS011;33950;48.154;16.316;2022-08-21T13:09:16;2.00;;;1.60;;
48161;SDS011;33950;48.154;16.316;2022-08-21T13:11:45;4.55;;;1.88;;
48161;SDS011;33950;48.154;16.316;2022-08-21T13:14:15;7.32;;;2.00;;
48161;SDS011;33950;48.154;16.316;2022-08-21T13:16:47;1.73;;;1.63;;
48161;SDS011;33950;48.154;16.316;2022-08-21T13:19:17;2.13;;;1.52;;
48161;SDS011;33950;48.154;16.316;2022-08-21T13:21:44;3.33;;;1.95;;
48161;SDS011;33950;48.154;16.316;2022-08-21T13:24:12;2.20;;;2.00;;
48161;SDS011;33950;48.154;16.316;2022-08-21T13:26:41;8.82;;;4.38;;
48161;SDS011;33950;48.154;16.316;2022-08-21T13:29:07;3.85;;;3.42;;
48161;SDS011;33950;48.154;16.316;2022-08-21T13:31:40;6.18;;;3.85;;
48161;SDS011;33950;48.154;16.316;2022-08-21T13:34:13;9.95;;;5.40;;
48161;SDS011;33950;48.154;16.316;2022-08-21T13:36:41;3.97;;;2.45;;
48161;SDS011;33950;48.154;16.316;2022-08-21T13:39:08;6.18;;;4.22;;
48161;SDS011;33950;48.154;16.316;2022-08-21T13:41:37;4.15;;;2.70;;
48161;SDS011;33950;48.154;16.316;2022-08-21T13:44:06;2.55;;;2.35;;
48161;SDS011;33950;48.154;16.316;2022-08-21T13:46:40;7.55;;;5.38;;
48161;SDS011;33950;48.154;16.316;2022-08-21T13:49:08;6.15;;;2.70;;
48161;SDS011;33950;48.154;16.316;2022-08-21T13:51:36;6.25;;;3.10;;
48161;SDS011;33950;48.154;16.316;2022-08-21T13:54:13;5.07;;;2.70;;
48161;SDS011;33950;48.154;16.316;2022-08-21T13:56:41;5.25;;;2.80;;
48161;SDS011;33950;48.154;16.316;2022-08-21T13:59:08;5.80;;;2.70;;
48161;SDS011;33950;48.154;16.316;2022-08-21T14:01:35;12.15;;;4.63;;
48161;SDS011;33950;48.154;16.316;2022-08-21T14:04:07;2.17;;;1.98;;
48161;SDS011;33950;48.154;16.316;2022-08-21T14:06:44;3.25;;;2.60;;
48161;SDS011;33950;48.154;16.316;2022-08-21T14:09:12;4.82;;;2.55;;
48161;SDS011;33950;48.154;16.316;2022-08-21T14:11:40;4.63;;;2.60;;
48161;SDS011;33950;48.154;16.316;2022-08-21T14:14:12;3.22;;;2.45;;
48161;SDS011;33950;48.154;16.316;2022-08-21T14:16:45;3.63;;;2.55;;
48161;SDS011;33950;48.154;16.316;2022-08-21T14:19:18;3.78;;;2.90;;
48161;SDS011;33950;48.154;16.316;2022-08-21T14:21:47;3.88;;;2.65;;
48161;SDS011;33950;48.154;16.316;2022-08-21T14:24:24;4.72;;;2.78;;
48161;SDS011;33950;48.154;16.316;2022-08-21T14:26:53;4.75;;;2.80;;
48161;SDS011;33950;48.154;16.316;2022-08-21T14:29:21;3.95;;;2.40;;
48161;SDS011;33950;48.154;16.316;2022-08-21T14:31:51;4.15;;;2.72;;
48161;SDS011;33950;48.154;16.316;2022-08-21T14:34:18;4.80;;;2.88;;
48161;SDS011;33950;48.154;16.316;2022-08-21T14:36:44;4.93;;;2.65;;
48161;SDS011;33950;48.154;16.316;2022-08-21T14:39:11;2.80;;;2.60;;
48161;SDS011;33950;48.154;16.316;2022-08-21T14:41:37;3.20;;;2.75;;
48161;SDS011;33950;48.154;16.316;2022-08-21T14:44:03;2.65;;;2.15;;
48161;SDS011;33950;48.154;16.316;2022-08-21T14:46:30;8.63;;;2.47;;
48161;SDS011;33950;48.154;16.316;2022-08-21T14:48:57;5.80;;;2.30;;